createdAt,value
2018-08-23T00:01:18.840Z,6.33
2018-08-23T00:03:46.747Z,6.67
2018-08-23T00:06:14.388Z,7.23
2018-08-23T00:08:48.313Z,8.70
2018-08-23T00:11:21.176Z,8.40
2018-08-23T00:13:49.012Z,7.43
2018-08-23T00:16:32.720Z,7.37
2018-08-23T00:19:01.419Z,7.77
2018-08-23T00:21:29.389Z,9.77
2018-08-23T00:24:16.080Z,6.57
2018-08-23T00:26:53.041Z,7.13
2018-08-23T00:29:24.723Z,7.87
2018-08-23T00:31:55.003Z,6.87
2018-08-23T00:34:28.744Z,8.27
2018-08-23T00:36:57.017Z,9.10
2018-08-23T00:39:25.394Z,9.63
2018-08-23T00:41:58.830Z,8.53
2018-08-23T00:44:26.627Z,8.40
2018-08-23T00:46:55.592Z,8.17
2018-08-23T00:49:31.836Z,7.10
2018-08-23T00:51:59.721Z,8.83
2018-08-23T00:54:27.549Z,6.27
2018-08-23T00:56:55.339Z,7.30
2018-08-23T00:59:23.167Z,6.57
2018-08-23T01:02:06.843Z,6.83
2018-08-23T01:04:42.496Z,11.70
2018-08-23T01:07:19.432Z,8.27
2018-08-23T01:09:47.264Z,7.73
2018-08-23T01:12:15.143Z,9.53
2018-08-23T01:14:42.879Z,9.53
2018-08-23T01:17:15.585Z,6.73
2018-08-23T01:19:49.124Z,8.97
2018-08-23T01:22:16.987Z,7.37
2018-08-23T01:24:46.555Z,7.30
2018-08-23T01:27:22.215Z,7.07
2018-08-23T01:29:50.104Z,7.53
2018-08-23T01:32:35.797Z,7.97
2018-08-23T01:35:03.598Z,7.60
2018-08-23T01:37:38.974Z,6.93
2018-08-23T01:40:08.787Z,7.73
2018-08-23T01:42:37.698Z,8.60
2018-08-23T01:45:07.363Z,6.70
2018-08-23T01:47:42.674Z,10.67
2018-08-23T01:50:11.347Z,11.03
2018-08-23T01:52:45.083Z,10.37
2018-08-23T01:55:13.636Z,12.47
2018-08-23T01:57:41.538Z,8.83
2018-08-23T02:00:10.200Z,7.90
2018-08-23T02:02:38.039Z,10.23
2018-08-23T02:05:06.340Z,8.83
2018-08-23T02:07:34.199Z,10.30
2018-08-23T02:10:02.113Z,9.23
2018-08-23T02:12:29.882Z,7.93
2018-08-23T02:15:03.126Z,10.07
2018-08-23T02:18:10.320Z,8.07
2018-08-23T02:20:38.144Z,11.87
2018-08-23T02:23:05.999Z,10.00
2018-08-23T02:25:33.827Z,8.03
2018-08-23T02:28:03.965Z,9.63
2018-08-23T02:30:56.034Z,8.83
2018-08-23T02:33:24.663Z,11.53
2018-08-23T02:36:18.751Z,7.97
2018-08-23T02:39:04.483Z,8.60
2018-08-23T02:41:32.255Z,9.20
2018-08-23T02:44:00.071Z,12.83
2018-08-23T02:46:30.219Z,10.57
2018-08-23T02:48:58.031Z,10.43
2018-08-23T02:51:38.243Z,9.80
2018-08-23T02:54:10.087Z,8.77
2018-08-23T02:56:37.959Z,7.50
2018-08-23T02:59:05.780Z,8.93
2018-08-23T03:01:35.080Z,11.43
2018-08-23T03:04:10.484Z,9.13
2018-08-23T03:07:12.082Z,7.23
2018-08-23T03:09:42.809Z,9.40
2018-08-23T03:12:15.688Z,8.73
2018-08-23T03:14:43.501Z,9.43
2018-08-23T03:17:19.598Z,9.63
2018-08-23T03:19:58.631Z,10.17
2018-08-23T03:22:26.886Z,8.80
2018-08-23T03:24:54.735Z,10.07
2018-08-23T03:27:22.732Z,9.13
2018-08-23T03:29:50.707Z,9.80
2018-08-23T03:32:18.492Z,10.67
2018-08-23T03:34:46.396Z,7.83
2018-08-23T03:37:14.627Z,7.97
2018-08-23T03:39:42.427Z,10.87
2018-08-23T03:42:10.222Z,10.13
2018-08-23T03:44:38.523Z,8.17
2018-08-23T03:47:06.281Z,7.13
2018-08-23T03:49:39.848Z,6.43
2018-08-23T03:52:07.612Z,10.40
2018-08-23T03:54:35.408Z,9.73
2018-08-23T03:57:16.351Z,7.57
2018-08-23T03:59:45.303Z,6.70
2018-08-23T04:02:14.320Z,8.03
2018-08-23T04:04:43.514Z,9.40
2018-08-23T04:07:11.508Z,8.83
2018-08-23T04:09:39.580Z,8.33
2018-08-23T04:12:07.919Z,11.60
2018-08-23T04:14:36.053Z,9.70
2018-08-23T04:17:08.232Z,7.43
2018-08-23T04:19:49.279Z,9.10
2018-08-23T04:22:17.777Z,10.80
2018-08-23T04:24:56.588Z,7.90
2018-08-23T04:27:24.964Z,9.93
2018-08-23T04:29:52.746Z,9.30
2018-08-23T04:32:28.503Z,10.73
2018-08-23T04:34:58.387Z,9.87
2018-08-23T04:37:26.799Z,9.63
2018-08-23T04:40:00.379Z,10.70
2018-08-23T04:42:28.184Z,9.57
2018-08-23T04:44:57.532Z,13.93
2018-08-23T04:47:25.362Z,8.30
2018-08-23T04:49:53.272Z,8.67
2018-08-23T04:52:21.135Z,11.43
2018-08-23T04:54:48.971Z,7.97
2018-08-23T04:57:16.775Z,8.00
2018-08-23T04:59:44.664Z,10.90
2018-08-23T05:02:12.913Z,9.13
2018-08-23T05:04:41.251Z,8.10
2018-08-23T05:07:09.410Z,9.67
2018-08-23T05:09:38.731Z,10.83
2018-08-23T05:12:06.623Z,12.40
2018-08-23T05:14:34.414Z,13.17
2018-08-23T05:17:02.411Z,7.63
2018-08-23T05:19:30.483Z,8.77
2018-08-23T05:21:58.544Z,9.90
2018-08-23T05:24:27.028Z,8.17
2018-08-23T05:26:54.782Z,11.20
2018-08-23T05:29:22.737Z,10.07
2018-08-23T05:31:51.442Z,13.93
2018-08-23T05:34:19.399Z,10.83
2018-08-23T05:36:47.193Z,8.47
2018-08-23T05:39:15.324Z,12.90
2018-08-23T05:41:43.491Z,12.77
2018-08-23T05:44:20.651Z,10.83
2018-08-23T05:46:52.674Z,10.37
2018-08-23T05:49:21.195Z,11.20
2018-08-23T05:51:48.971Z,10.27
2018-08-23T05:54:16.725Z,9.57
2018-08-23T05:56:44.571Z,9.03
2018-08-23T05:59:14.279Z,15.07
2018-08-23T06:01:42.684Z,11.83
2018-08-23T06:04:10.675Z,11.57
2018-08-23T06:06:38.735Z,7.63
2018-08-23T06:09:10.719Z,10.13
2018-08-23T06:11:38.779Z,8.00
2018-08-23T06:14:06.677Z,8.87
2018-08-23T06:16:46.991Z,14.73
2018-08-23T06:19:14.828Z,9.73
2018-08-23T06:21:42.604Z,9.63
2018-08-23T06:24:10.407Z,11.80
2018-08-23T06:26:47.419Z,12.10
2018-08-23T06:29:19.652Z,12.33
2018-08-23T06:31:54.928Z,9.63
2018-08-23T06:34:24.090Z,9.97
2018-08-23T06:36:52.822Z,18.50
2018-08-23T06:39:20.607Z,21.93
2018-08-23T06:41:48.488Z,17.37
2018-08-23T06:44:16.278Z,21.63
2018-08-23T06:46:44.128Z,19.40
2018-08-23T06:49:11.867Z,15.60
2018-08-23T06:51:39.682Z,15.33
2018-08-23T06:54:07.521Z,15.53
2018-08-23T06:56:36.940Z,14.27
2018-08-23T06:59:04.978Z,16.83
2018-08-23T07:01:39.453Z,15.83
2018-08-23T07:04:10.215Z,14.00
2018-08-23T07:06:38.097Z,13.30
2018-08-23T07:09:16.713Z,20.43
2018-08-23T07:11:44.836Z,15.63
2018-08-23T07:14:13.789Z,17.17
2018-08-23T07:16:42.827Z,18.67
2018-08-23T07:19:29.152Z,17.53
2018-08-23T07:21:58.427Z,14.43
2018-08-23T07:24:39.783Z,16.97
2018-08-23T07:27:09.634Z,15.73
2018-08-23T07:29:37.380Z,15.87
2018-08-23T07:32:06.675Z,15.43
2018-08-23T07:34:34.962Z,17.67
2018-08-23T07:37:08.468Z,14.70
2018-08-23T07:39:36.267Z,13.17
2018-08-23T07:42:04.169Z,13.80
2018-08-23T07:44:31.999Z,14.67
2018-08-23T07:46:59.757Z,13.97
2018-08-23T07:49:27.475Z,14.57
2018-08-23T07:51:55.321Z,18.07
2018-08-23T07:54:23.123Z,14.47
2018-08-23T07:56:50.972Z,14.00
2018-08-23T07:59:18.827Z,17.50
2018-08-23T08:01:46.675Z,14.43
2018-08-23T08:04:14.516Z,12.00
2018-08-23T08:06:42.368Z,12.90
2018-08-23T08:09:10.912Z,11.40
2018-08-23T08:11:51.242Z,11.43
2018-08-23T08:14:24.850Z,12.50
2018-08-23T08:16:57.316Z,13.50
2018-08-23T08:19:25.466Z,12.77
2018-08-23T08:21:53.271Z,14.30
2018-08-23T08:24:21.075Z,9.83
2018-08-23T08:26:48.837Z,13.00
2018-08-23T08:29:21.233Z,12.60
2018-08-23T08:31:49.009Z,10.70
2018-08-23T08:34:16.863Z,13.37
2018-08-23T08:36:44.699Z,15.77
2018-08-23T08:39:12.486Z,11.27
2018-08-23T08:41:40.344Z,9.93
2018-08-23T08:44:08.196Z,10.93
2018-08-23T08:46:35.980Z,11.03
2018-08-23T08:49:03.842Z,12.90
2018-08-23T08:51:33.192Z,9.20
2018-08-23T08:54:02.368Z,10.07
2018-08-23T08:56:37.766Z,14.67
2018-08-23T08:59:05.639Z,11.17
2018-08-23T09:01:33.512Z,10.83
2018-08-23T09:04:01.615Z,9.97
2018-08-23T09:06:49.307Z,13.13
2018-08-23T09:09:36.856Z,10.33
2018-08-23T09:12:05.997Z,14.50
2018-08-23T09:14:34.476Z,10.73
2018-08-23T09:18:05.815Z,11.87
2018-08-23T09:20:33.626Z,12.80
2018-08-23T09:23:01.323Z,12.70
2018-08-23T09:25:34.884Z,12.47
2018-08-23T09:28:02.665Z,10.87
2018-08-23T09:30:31.685Z,11.57
2018-08-23T09:33:05.195Z,11.67
2018-08-23T09:35:33.578Z,11.00
2018-08-23T09:38:10.313Z,14.07
2018-08-23T09:40:38.187Z,14.67
2018-08-23T09:43:05.984Z,10.87
2018-08-23T09:45:35.398Z,13.33
2018-08-23T09:48:03.362Z,12.73
2018-08-23T09:50:31.168Z,13.37
2018-08-23T09:52:58.927Z,15.30
2018-08-23T09:55:28.512Z,12.20
2018-08-23T09:57:56.799Z,12.23
2018-08-23T10:00:25.001Z,12.77
2018-08-23T10:02:58.443Z,11.47
2018-08-23T10:05:31.870Z,11.83
2018-08-23T10:08:05.179Z,14.43
2018-08-23T10:10:38.576Z,14.80
2018-08-23T10:13:12.083Z,11.33
2018-08-23T10:15:44.783Z,10.20
2018-08-23T10:18:18.308Z,10.13
2018-08-23T10:20:53.631Z,10.70
2018-08-23T10:23:23.311Z,12.07
2018-08-23T10:25:56.306Z,13.17
2018-08-23T10:28:25.179Z,9.83
2018-08-23T10:30:53.304Z,11.50
2018-08-23T10:33:21.029Z,9.30
2018-08-23T10:35:56.318Z,9.20
2018-08-23T10:38:26.331Z,9.83
2018-08-23T10:40:58.657Z,9.70
2018-08-23T10:43:32.143Z,11.07
2018-08-23T10:46:03.532Z,10.67
2018-08-23T10:48:31.391Z,8.60
2018-08-23T10:50:59.149Z,8.33
2018-08-23T10:53:26.920Z,9.77
2018-08-23T10:55:54.668Z,10.27
2018-08-23T10:58:22.384Z,7.50
2018-08-23T11:00:50.096Z,8.23
2018-08-23T11:03:17.883Z,7.70
2018-08-23T11:05:45.628Z,9.83
2018-08-23T11:08:18.988Z,8.93
2018-08-23T11:10:52.331Z,8.43
2018-08-23T11:13:25.869Z,7.58
2018-08-23T11:15:59.465Z,7.50
2018-08-23T11:18:33.006Z,9.00
2018-08-23T11:21:00.808Z,8.28
2018-08-23T11:23:28.635Z,8.15
2018-08-23T11:25:56.492Z,10.32
2018-08-23T11:28:25.517Z,8.55
2018-08-23T11:30:53.912Z,7.33
2018-08-23T11:33:21.846Z,7.15
2018-08-23T11:35:49.643Z,7.37
2018-08-23T11:38:17.410Z,12.43
2018-08-23T11:40:45.267Z,5.40
2018-08-23T11:43:13.137Z,8.53
2018-08-23T11:45:40.955Z,6.28
2018-08-23T11:48:08.698Z,5.10
2018-08-23T11:50:36.917Z,7.03
2018-08-23T11:53:05.007Z,4.87
2018-08-23T11:55:32.756Z,5.30
2018-08-23T11:58:00.626Z,5.25
2018-08-23T12:00:28.456Z,4.67
2018-08-23T12:02:56.227Z,5.30
2018-08-23T12:05:24.059Z,6.08
2018-08-23T12:07:53.219Z,4.95
2018-08-23T12:10:22.248Z,6.00
2018-08-23T12:12:51.514Z,9.48
2018-08-23T12:15:28.135Z,5.47
2018-08-23T12:17:56.231Z,8.78
2018-08-23T12:20:24.028Z,5.17
2018-08-23T12:22:51.827Z,6.60
2018-08-23T12:25:19.605Z,5.30
2018-08-23T12:27:59.831Z,6.00
2018-08-23T12:30:27.750Z,8.03
2018-08-23T12:32:55.651Z,6.08
2018-08-23T12:35:23.746Z,5.37
2018-08-23T12:38:00.475Z,5.97
2018-08-23T12:40:35.952Z,5.92
2018-08-23T12:43:07.820Z,10.80
2018-08-23T12:45:42.800Z,7.42
2018-08-23T12:48:11.631Z,5.95
2018-08-23T12:50:40.339Z,6.00
2018-08-23T12:53:08.130Z,5.95
2018-08-23T12:55:36.098Z,6.12
2018-08-23T12:58:08.565Z,5.67
2018-08-23T13:00:36.831Z,4.90
2018-08-23T13:03:05.238Z,5.20
2018-08-23T13:05:33.307Z,8.38
2018-08-23T13:08:01.063Z,4.17
2018-08-23T13:10:28.860Z,4.53
2018-08-23T13:12:56.643Z,5.78
2018-08-23T13:15:24.492Z,6.55
2018-08-23T13:17:52.344Z,3.60
2018-08-23T13:20:20.096Z,5.92
2018-08-23T13:22:47.905Z,4.10
2018-08-23T13:25:17.255Z,5.67
2018-08-23T13:27:45.728Z,3.70
2018-08-23T13:30:13.540Z,4.80
2018-08-23T13:32:41.360Z,4.80
2018-08-23T13:35:09.171Z,3.22
2018-08-23T13:37:36.912Z,6.25
2018-08-23T13:40:04.859Z,2.80
2018-08-23T13:42:32.688Z,4.08
2018-08-23T13:45:00.477Z,3.25
2018-08-23T13:47:28.201Z,3.95
2018-08-23T13:49:56.003Z,3.43
2018-08-23T13:52:23.783Z,3.60
2018-08-23T13:54:51.572Z,3.30
2018-08-23T13:57:19.319Z,7.23
2018-08-23T13:59:47.115Z,4.33
2018-08-23T14:02:14.918Z,4.50
2018-08-23T14:04:42.632Z,3.63
2018-08-23T14:07:10.452Z,3.43
2018-08-23T14:09:38.271Z,7.23
2018-08-23T14:12:06.127Z,2.97
2018-08-23T14:14:33.928Z,2.53
2018-08-23T14:17:01.737Z,4.27
2018-08-23T14:19:29.551Z,3.40
2018-08-23T14:21:57.299Z,2.60
2018-08-23T14:24:25.092Z,2.27
2018-08-23T14:26:52.883Z,3.67
2018-08-23T14:29:20.644Z,2.77
2018-08-23T14:31:48.428Z,6.40
2018-08-23T14:34:16.280Z,2.73
2018-08-23T14:36:44.168Z,5.97
2018-08-23T14:39:12.068Z,3.10
2018-08-23T14:41:40.019Z,3.60
2018-08-23T14:44:08.419Z,5.60
2018-08-23T14:46:41.937Z,2.47
2018-08-23T14:49:12.901Z,3.33
2018-08-23T14:51:40.683Z,3.77
2018-08-23T14:54:14.287Z,5.87
2018-08-23T14:56:47.699Z,3.40
2018-08-23T14:59:15.478Z,3.27
2018-08-23T15:01:43.315Z,2.90
2018-08-23T15:04:11.099Z,5.00
2018-08-23T15:06:38.848Z,6.63
2018-08-23T15:09:07.729Z,5.80
2018-08-23T15:11:35.479Z,6.60
2018-08-23T15:14:03.356Z,3.47
2018-08-23T15:16:31.336Z,4.57
2018-08-23T15:18:59.207Z,3.00
2018-08-23T15:21:26.987Z,5.47
2018-08-23T15:23:54.923Z,2.80
2018-08-23T15:26:25.044Z,2.83
2018-08-23T15:28:52.624Z,3.50
2018-08-23T15:31:20.408Z,2.97
2018-08-23T15:33:48.212Z,2.83
2018-08-23T15:36:16.041Z,4.43
2018-08-23T15:38:43.867Z,3.37
2018-08-23T15:41:11.855Z,3.03
2018-08-23T15:43:39.668Z,3.17
2018-08-23T15:46:07.469Z,4.53
2018-08-23T15:48:35.285Z,3.20
2018-08-23T15:51:03.183Z,3.37
2018-08-23T15:53:30.968Z,2.83
2018-08-23T15:55:58.819Z,3.03
2018-08-23T15:58:26.575Z,3.60
2018-08-23T16:00:54.361Z,4.13
2018-08-23T16:03:22.084Z,2.97
2018-08-23T16:05:49.847Z,2.73
2018-08-23T16:08:21.088Z,3.20
2018-08-23T16:10:48.813Z,4.60
2018-08-23T16:13:16.615Z,3.93
2018-08-23T16:15:44.388Z,3.13
2018-08-23T16:18:17.884Z,2.80
2018-08-23T16:20:51.199Z,3.40
2018-08-23T16:23:19.968Z,3.27
2018-08-23T16:25:47.869Z,4.37
2018-08-23T16:28:15.665Z,4.10
2018-08-23T16:30:44.043Z,3.97
2018-08-23T16:33:12.399Z,3.27
2018-08-23T16:35:40.879Z,3.60
2018-08-23T16:38:08.732Z,4.67
2018-08-23T16:40:36.531Z,5.67
2018-08-23T16:43:04.607Z,3.67
2018-08-23T16:45:32.441Z,4.40
2018-08-23T16:50:34.630Z,4.40
2018-08-23T16:53:02.389Z,3.27
2018-08-23T16:55:30.180Z,3.52
2018-08-23T16:57:57.987Z,3.87
2018-08-23T17:00:25.784Z,3.20
2018-08-23T17:02:53.527Z,3.20
2018-08-23T17:05:21.394Z,4.47
2018-08-23T17:07:49.259Z,3.27
2018-08-23T17:10:17.106Z,3.97
2018-08-23T17:12:44.840Z,3.03
2018-08-23T17:15:13.849Z,3.73
2018-08-23T17:17:52.340Z,3.30
2018-08-23T17:20:20.441Z,3.57
2018-08-23T17:22:48.600Z,5.63
2018-08-23T17:25:16.481Z,5.37
2018-08-23T17:27:44.240Z,3.57
2018-08-23T17:30:12.192Z,4.37
2018-08-23T17:32:40.184Z,3.93
2018-08-23T17:35:08.132Z,5.80
2018-08-23T17:37:36.156Z,3.47
2018-08-23T17:40:04.609Z,4.57
2018-08-23T17:42:38.295Z,4.00
2018-08-23T17:45:07.854Z,8.67
2018-08-23T17:47:35.772Z,5.63
2018-08-23T17:50:03.950Z,4.17
2018-08-23T17:52:31.852Z,6.03
2018-08-23T17:54:59.712Z,6.40
2018-08-23T17:57:27.483Z,4.17
2018-08-23T17:59:55.547Z,6.63
2018-08-23T18:02:23.388Z,5.13
2018-08-23T18:04:51.704Z,5.03
2018-08-23T18:07:19.548Z,5.47
2018-08-23T18:09:48.466Z,5.77
2018-08-23T18:12:16.395Z,5.57
2018-08-23T18:14:44.360Z,5.30
2018-08-23T18:17:13.188Z,4.83
2018-08-23T18:19:41.193Z,4.43
2018-08-23T18:22:09.240Z,10.77
2018-08-23T18:24:37.223Z,8.20
2018-08-23T18:27:05.705Z,4.80
2018-08-23T18:29:33.794Z,3.57
2018-08-23T18:32:01.720Z,4.60
2018-08-23T18:34:29.585Z,3.43
2018-08-23T18:36:58.805Z,4.07
2018-08-23T18:39:27.031Z,4.23
2018-08-23T18:41:54.941Z,5.63
2018-08-23T18:44:23.515Z,3.70
2018-08-23T18:46:51.616Z,3.77
2018-08-23T18:49:19.595Z,3.23
2018-08-23T18:51:47.552Z,6.87
2018-08-23T18:54:15.497Z,4.63
2018-08-23T18:56:44.951Z,5.03
2018-08-23T18:59:12.791Z,5.23
2018-08-23T19:01:41.785Z,4.10
2018-08-23T19:04:09.641Z,7.70
2018-08-23T19:06:37.851Z,4.30
2018-08-23T19:09:11.998Z,5.70
2018-08-23T19:11:39.811Z,9.10
2018-08-23T19:14:07.800Z,31.47
2018-08-23T19:16:41.457Z,27.20
2018-08-23T19:19:10.297Z,10.07
2018-08-23T19:21:38.473Z,9.30
2018-08-23T19:24:06.271Z,11.57
2018-08-23T19:26:34.129Z,5.03
2018-08-23T19:29:02.308Z,6.50
2018-08-23T19:31:30.326Z,6.27
2018-08-23T19:33:58.101Z,7.50
2018-08-23T19:36:25.892Z,5.83
2018-08-23T19:38:53.780Z,4.63
2018-08-23T19:41:21.569Z,7.07
2018-08-23T19:43:49.352Z,7.27
2018-08-23T19:46:22.843Z,4.37
2018-08-23T19:48:57.619Z,5.27
2018-08-23T19:51:27.033Z,6.20
2018-08-23T19:53:54.871Z,5.60
2018-08-23T19:56:30.389Z,5.07
2018-08-23T19:58:59.212Z,6.63
2018-08-23T20:01:27.631Z,5.47
2018-08-23T20:04:01.585Z,5.53
2018-08-23T20:06:40.567Z,5.80
2018-08-23T20:09:09.788Z,6.47
2018-08-23T20:11:37.939Z,7.47
2018-08-23T20:14:07.600Z,5.03
2018-08-23T20:16:36.933Z,5.33
2018-08-23T20:19:05.352Z,5.67
2018-08-23T20:21:35.315Z,6.70
2018-08-23T20:24:07.724Z,5.13
2018-08-23T20:26:36.123Z,5.60
2018-08-23T20:29:07.212Z,7.17
2018-08-23T20:31:36.651Z,6.40
2018-08-23T20:34:04.671Z,5.13
2018-08-23T20:36:32.751Z,5.80
2018-08-23T20:39:00.643Z,4.90
2018-08-23T20:41:30.318Z,5.77
2018-08-23T20:43:58.463Z,4.83
2018-08-23T20:46:28.971Z,7.43
2018-08-23T20:48:59.077Z,6.17
2018-08-23T20:51:30.769Z,4.80
2018-08-23T20:54:01.689Z,5.50
2018-08-23T20:56:31.134Z,4.97
2018-08-23T20:59:04.369Z,4.27
2018-08-23T21:01:32.373Z,4.10
2018-08-23T21:04:03.360Z,4.30
2018-08-23T21:06:35.609Z,4.20
2018-08-23T21:09:08.310Z,4.67
2018-08-23T21:11:36.621Z,8.27
2018-08-23T21:14:06.377Z,6.40
2018-08-23T21:16:38.143Z,9.40
2018-08-23T21:19:11.993Z,6.07
2018-08-23T21:21:41.103Z,6.10
2018-08-23T21:24:14.980Z,4.93
2018-08-23T21:26:45.064Z,8.43
2018-08-23T21:29:18.805Z,4.50
2018-08-23T21:31:50.204Z,9.17
2018-08-23T21:34:22.226Z,7.13
2018-08-23T21:36:51.781Z,4.53
2018-08-23T21:39:20.086Z,5.70
2018-08-23T21:41:48.151Z,3.70
2018-08-23T21:44:17.707Z,5.87
2018-08-23T21:46:45.547Z,6.23
2018-08-23T21:49:17.951Z,4.97
2018-08-23T21:51:49.344Z,6.10
2018-08-23T21:54:17.139Z,7.00
2018-08-23T21:56:47.568Z,5.47
2018-08-23T21:59:20.837Z,5.80
2018-08-23T22:01:53.979Z,8.90
2018-08-23T22:04:22.299Z,4.13
2018-08-23T22:06:50.988Z,4.70
2018-08-23T22:09:24.997Z,6.53
2018-08-23T22:11:53.371Z,6.20
2018-08-23T22:14:25.288Z,5.03
2018-08-23T22:16:53.160Z,4.10
2018-08-23T22:19:20.904Z,5.10
2018-08-23T22:21:50.267Z,5.37
2018-08-23T22:24:18.000Z,6.77
2018-08-23T22:26:45.873Z,5.40
2018-08-23T22:29:13.558Z,6.43
2018-08-23T22:31:41.391Z,6.90
2018-08-23T22:34:09.141Z,5.13
2018-08-23T22:36:36.971Z,6.10
2018-08-23T22:39:06.613Z,5.53
2018-08-23T22:41:34.359Z,6.07
2018-08-23T22:44:02.887Z,5.20
2018-08-23T22:46:29.924Z,5.80
2018-08-23T22:48:57.799Z,4.10
2018-08-23T22:51:25.602Z,5.63
2018-08-23T22:53:53.514Z,5.50
2018-08-23T22:56:21.269Z,6.80
2018-08-23T22:58:49.148Z,5.07
2018-08-23T23:01:16.967Z,5.13
2018-08-23T23:03:50.351Z,7.13
2018-08-23T23:06:18.199Z,4.67
2018-08-23T23:08:45.940Z,6.23
2018-08-23T23:11:13.703Z,5.57
2018-08-23T23:13:41.527Z,4.90
2018-08-23T23:16:09.343Z,5.03
2018-08-23T23:18:37.116Z,4.93
2018-08-23T23:21:04.955Z,8.07
2018-08-23T23:23:32.764Z,5.27
2018-08-23T23:26:00.596Z,6.87
2018-08-23T23:28:28.450Z,5.30
2018-08-23T23:30:56.290Z,6.37
2018-08-23T23:33:24.116Z,9.40
2018-08-23T23:35:51.892Z,6.93
2018-08-23T23:38:19.682Z,8.27
2018-08-23T23:40:47.427Z,7.40
2018-08-23T23:43:15.168Z,5.80
2018-08-23T23:45:42.995Z,6.90
2018-08-23T23:48:10.735Z,6.03
2018-08-23T23:50:38.581Z,5.30
2018-08-23T23:53:06.543Z,5.27
2018-08-23T23:55:34.354Z,5.50
2018-08-23T23:58:02.171Z,6.83
